Latest Coastal Weather Observations for Ballina

IDN60701

Issued at 5:05 pm EST Wednesday 30 July 2014 (issued every 10 minutes, with the page automatically refreshed every 10 minutes)

About coastal observations | Map of coastal stations | Coastal observations for NSW | Marine services | Other Formats
Station Details ID: 058198 Name: BALLINA AIRPORT AWS Lat: -28.84 Lon: 153.56 Height: 1.3 m
Data from the previous 72 hours. | See also: Recent months at Ballina
Date/Time
EST
Temp

°C
Wind Pressure Rain
since 9am
mm
Weather Cloud Vis
km
Sea
Height
m
Swell
Dir
 
Speed
knots
Gust
knots
hPa Trend Height
m
Period
s
Dir
30/05:00pm 17.2 NE 6 7 1019.5 - 0.0 - - 10 - - - -
30/04:30pm 18.9 NNE 7 8 1019.3 - 0.0 - - 10 - - - -
30/04:00pm 19.8 NNE 8 11 1019.1 - 0.0 - - 10 - - - -
30/03:30pm 20.5 NE 9 11 1018.8 - 0.0 - - 10 - - - -
30/03:00pm 20.9 NE 8 10 1019.0 - 0.0 - - 10 - - - -
30/02:30pm 21.3 NE 8 10 1019.0 - 0.0 - - 10 - - - -
30/02:00pm 21.3 E 9 11 1019.1 - 0.0 - - 10 - - - -
30/01:30pm 21.4 E 9 11 1019.3 - 0.0 - - 10 - - - -
30/01:00pm 21.4 E 9 12 1019.6 - 0.0 - - 10 - - - -
30/12:30pm 22.6 NNE 4 8 1020.0 - 0.0 - - 10 - - - -
30/12:00pm 21.8 NNW 4 7 1020.5 - 0.0 - - 10 - - - -
30/11:30am 22.0 NNW 4 8 1021.2 - 0.0 - - 10 - - - -
30/11:00am 21.6 NW 4 7 1021.5 - 0.0 - - 10 - - - -
30/10:30am 20.7 W 6 9 1022.0 - 0.0 - - 10 - - - -
30/10:00am 20.1 W 7 10 1022.3 - 0.0 - - 10 - - - -
30/09:30am 19.2 WNW 6 8 1022.6 - 0.0 - - 10 - - - -
30/09:00am 17.7 W 7 10 1022.7 - 0.0 - - 10 - - - -
30/08:30am 14.6 CALM 0 3 1022.6 - 0.0 - - 10 - - - -
30/08:00am 11.9 CALM 0 0 1022.5 - 0.0 - - 10 - - - -
30/07:30am 7.8 CALM 0 0 1022.3 - 0.0 - - 10 - - - -
30/07:00am 5.3 CALM 0 0 1022.0 - 0.0 - - 10 - - - -
30/06:30am 4.1 CALM 0 0 1021.7 - 0.0 - - 10 - - - -
30/06:00am 4.5 CALM 0 0 1021.3 - 0.0 - - 10 - - - -
30/05:30am 5.0 CALM 0 0 1021.2 - 0.0 - - 10 - - - -
30/05:00am 5.2 N 1 3 1021.0 - 0.0 - - 10 - - - -
30/04:30am 5.4 CALM 0 1 1020.7 - 0.0 - - 10 - - - -
30/04:00am 5.0 CALM 0 0 1020.6 - 0.0 - - 10 - - - -
30/03:30am 5.9 NNW 1 4 1020.4 - 0.0 - - 10 - - - -
30/03:00am 5.5 N 3 3 1020.6 - 0.0 - - 10 - - - -
30/02:30am 6.0 NNE 1 4 1020.6 - 0.0 - - 10 - - - -
30/02:00am 6.1 N 3 4 1020.7 - 0.0 - - 10 - - - -
30/01:30am 7.5 N 1 3 1020.8 - 0.0 - - 10 - - - -
30/01:00am 8.8 N 3 4 1021.1 - 0.0 - - 10 - - - -
30/12:30am 8.9 N 2 4 1021.3 - 0.0 - - 10 - - - -
30/12:00am 9.2 N 3 5 1021.4 - 0.0 - - 10 - - - -
 
Date/Time
EST
Temp

°C
Wind Pressure Rain
since 9am
mm
Weather Cloud Vis
km
Sea
Height
m
Swell
Dir
 
Speed
knots
Gust
knots
hPa Trend Height
m
Period
s
Dir
29/11:30pm 10.2 NNW 5 7 1021.5 - 0.0 - - 10 - - - -
29/11:00pm 8.4 NNW 5 5 1021.7 - 0.0 - - 10 - - - -
29/10:30pm 8.4 N 2 3 1021.5 - 0.0 - - 10 - - - -
29/10:00pm 8.8 N 5 6 1021.1 - 0.0 - - 10 - - - -
29/09:30pm 8.7 NNW 2 3 1021.1 - 0.0 - - 10 - - - -
29/09:00pm 9.2 CALM 0 3 1021.0 - 0.0 - - 10 - - - -
29/08:30pm 11.0 N 5 5 1020.7 - 0.0 - - 10 - - - -
29/08:00pm 11.7 N 5 6 1020.6 - 0.0 - - 10 - - - -
29/07:30pm 11.5 N 6 7 1020.4 - 0.0 - - 10 - - - -
29/07:00pm 11.1 CALM 0 0 1020.3 - 0.0 - - 10 - - - -
29/06:30pm 11.7 N 1 4 1020.1 - 0.0 - - 10 - - - -
29/06:00pm 13.6 N 6 7 1019.7 - 0.0 - - 10 - - - -
29/05:30pm 14.9 NNE 7 7 1019.6 - 0.0 - - 10 - - - -
29/05:00pm 16.4 NNE 5 7 1019.6 - 0.0 - - 10 - - - -
29/04:30pm 18.0 ENE 5 7 1019.4 - 0.0 - - 10 - - - -
29/04:00pm 19.0 E 4 7 1019.3 - 0.0 - - 10 - - - -
29/03:30pm 19.5 E 5 7 1019.3 - 0.0 - - 10 - - - -
29/03:00pm 19.8 SE 7 9 1019.3 - 0.0 - - 10 - - - -
29/02:30pm 19.7 SSE 7 10 1019.6 - 0.0 - - 10 - - - -
29/02:00pm 19.8 SSE 7 12 1019.8 - 0.0 - - 10 - - - -
29/01:30pm 20.2 S 7 10 1019.9 - 0.0 - - 10 - - - -
29/01:00pm 20.3 SW 7 10 1020.2 - 0.0 - - 10 - - - -
29/12:30pm 19.6 SSW 7 10 1020.5 - 0.0 - - 10 - - - -
29/12:00pm 19.7 SSW 7 9 1021.0 - 0.0 - - 10 - - - -
29/11:30am 19.4 WSW 6 11 1021.6 - 0.0 - - 10 - - - -
29/11:00am 18.6 W 8 11 1022.1 - 0.0 - - 10 - - - -
29/10:30am 18.5 W 7 10 1022.4 - 0.0 - - 10 - - - -
29/10:00am 17.9 W 9 11 1022.5 - 0.0 - - 10 - - - -
29/09:30am 17.0 WNW 7 10 1022.6 - 0.0 - - 10 - - - -
29/09:00am 15.8 WNW 7 9 1022.5 - 0.0 - - 10 - - - -
29/08:30am 13.7 CALM 0 0 1022.5 - 0.0 - - 10 - - - -
29/08:00am 10.9 CALM 0 0 1022.3 - 0.0 - - 10 - - - -
29/07:30am 7.7 CALM 0 4 1022.1 - 0.0 - - 10 - - - -
29/07:00am 5.8 CALM 0 3 1021.7 - 0.0 - - 10 - - - -
29/06:30am 4.8 ESE 4 5 1021.4 - 0.0 - - 10 - - - -
29/06:00am 5.9 ESE 2 3 1021.0 - 0.0 - - 10 - - - -
29/05:30am 5.9 WSW 2 5 1020.8 - 0.0 - - 10 - - - -
29/05:00am 7.0 WNW 4 7 1020.4 - 0.0 - - 10 - - - -
29/04:30am 6.3 W 4 5 1020.2 - 0.0 - - 10 - - - -
29/04:03am 5.7 W 4 5 1020.0 - 0.0 - - 10 - - - -
29/04:00am 5.6 W 3 5 1020.0 - 0.0 - - 10 - - - -
29/03:42am 6.2 CALM 0 3 1020.0 - 0.0 - - 2 - - - -
29/03:30am 6.3 NNW 1 6 1019.9 - 0.0 - - 7 - - - -
29/03:00am 6.1 CALM 0 0 1020.0 - 0.0 - - 10 - - - -
29/02:55am 6.1 CALM 0 0 1020.0 - 0.0 - - 10 - - - -
29/02:30am 6.8 CALM 0 0 1020.0 - 0.0 - - 5 - - - -
29/02:28am 6.8 CALM 0 0 1020.0 - 0.0 - - 7 - - - -
29/02:04am 7.1 CALM 0 0 1020.0 - 0.0 - - 5 - - - -
29/02:00am 7.5 CALM 0 0 1020.0 - 0.0 - - 10 - - - -
29/01:30am 8.1 CALM 0 0 1020.4 - 0.0 - - 10 - - - -
29/01:00am 9.2 N 4 5 1020.5 - 0.0 - - 10 - - - -
29/12:30am 9.3 N 4 5 1020.8 - 0.0 - - 10 - - - -
29/12:00am 11.1 N 5 6 1020.8 - 0.0 - - 10 - - - -
 
Date/Time
EST
Temp

°C
Wind Pressure Rain
since 9am
mm
Weather Cloud Vis
km
Sea
Height
m
Swell
Dir
 
Speed
knots
Gust
knots
hPa Trend Height
m
Period
s
Dir
28/11:30pm 11.5 N 4 5 1021.0 - 0.0 - - 10 - - - -
28/11:00pm 10.9 NNW 4 4 1021.2 - 0.0 - - 10 - - - -
28/10:30pm 11.6 N 5 6 1021.3 - 0.0 - - 10 - - - -
28/10:00pm 13.2 NW 7 8 1021.4 - 0.0 - - 10 - - - -
28/09:30pm 14.0 N 7 8 1021.2 - 0.0 - - 10 - - - -
28/09:00pm 14.1 N 7 8 1021.3 - 0.0 - - 10 - - - -
28/08:30pm 14.4 N 6 7 1021.4 - 0.0 - - 10 - - - -
28/08:00pm 14.9 N 7 8 1021.1 - 0.0 - - 10 - - - -
28/07:30pm 15.5 N 8 11 1020.7 - 0.0 - - 10 - - - -
28/07:00pm 14.8 N 5 8 1020.8 - 0.0 - - 10 - - - -
28/06:30pm 15.2 N 5 7 1020.6 - 0.0 - - 10 - - - -
28/06:00pm 15.8 NNE 6 7 1020.4 - 0.0 - - 10 - - - -
28/05:30pm 16.4 NNE 5 7 1020.2 - 0.0 - - 10 - - - -
28/05:00pm 17.9 NNE 6 8 1020.1 - 0.0 - - 10 - - - -
28/04:30pm 19.1 NNE 8 11 1020.0 - 0.0 - - 10 - - - -
28/04:00pm 19.6 NE 11 14 1019.8 - 0.0 - - 10 - - - -
28/03:30pm 20.1 NE 12 17 1019.8 - 0.0 - - 10 - - - -
28/03:00pm 20.3 NE 11 14 1019.8 - 0.0 - - 10 - - - -
28/02:30pm 20.7 NE 10 13 1020.1 - 0.0 - - 10 - - - -
28/02:00pm 20.9 NE 9 13 1020.4 - 0.0 - - 10 - - - -
28/01:30pm 20.1 E 8 12 1020.7 - 0.0 - - 10 - - - -
28/01:00pm 20.1 E 7 11 1021.2 - 0.0 - Partly cloudy 10 - - - -
28/12:30pm 19.9 ESE 9 11 1021.9 - 0.0 - - 10 - - - -
28/12:00pm 19.8 SE 7 9 1022.5 - 0.0 - - 10 - - - -
28/11:30am 20.7 NW 4 7 1023.0 - 0.0 - - 10 - - - -
28/11:00am 20.0 WNW 4 8 1023.4 - 0.0 - - 10 - - - -
28/10:30am 19.7 NNW 7 9 1023.5 - 0.0 - - 10 - - - -
28/10:00am 18.7 NNW 6 8 1023.5 - 0.0 - - 10 - - - -
28/09:30am 18.0 NW 4 6 1023.7 - 0.0 - - 10 - - - -
28/09:00am 15.9 WNW 5 6 1023.8 - 0.0 - - 10 - - - -
28/08:30am 12.8 CALM 0 0 1023.8 - 0.0 - - 10 - - - -
28/08:00am 10.7 CALM 0 0 1023.5 - 0.0 - - 10 - - - -
28/07:30am 8.8 CALM 0 0 1023.2 - 0.0 - - 10 - - - -
28/07:00am 6.5 CALM 0 1 1023.1 - 0.0 - - 10 - - - -
28/06:30am 5.7 NNE 3 4 1022.8 - 0.0 - - 8 - - - -
28/06:00am 6.4 CALM 0 0 1022.9 - 0.0 - - 10 - - - -
28/05:30am 5.9 N 1 3 1022.6 - 0.0 - - 10 - - - -
28/05:00am 6.4 CALM 0 0 1022.5 - 0.0 - - 10 - - - -
28/04:30am 6.4 N 3 4 1022.7 - 0.0 - - 10 - - - -
28/04:00am 6.3 CALM 0 5 1022.9 - 0.0 - - 10 - - - -
28/03:30am 6.8 CALM 0 0 1023.0 - 0.0 - - 10 - - - -
28/03:00am 6.4 CALM 0 0 1023.0 - 0.0 - - 10 - - - -
28/02:30am 6.6 CALM 0 0 1022.9 - 0.0 - - 10 - - - -
28/02:00am 6.9 CALM 0 0 1023.0 - 0.0 - - 10 - - - -
28/01:59am 6.9 CALM 0 0 1023.0 - 0.0 - - 10 - - - -
28/01:30am 6.9 CALM 0 0 1023.3 - 0.0 - - 4 - - - -
28/01:27am 7.1 CALM 0 0 1023.4 - 0.0 - - 4 - - - -
28/01:00am 7.3 CALM 0 0 1023.5 - 0.0 - - 10 - - - -
28/12:45am 7.3 CALM 0 0 1023.6 - 0.0 - - 10 - - - -
28/12:30am 7.7 CALM 0 0 1023.6 - 0.0 - - 3 - - - -
28/12:26am 7.1 CALM 0 0 1023.5 - 0.0 - - 4 - - - -
28/12:00am 8.1 CALM 0 0 1023.5 - 0.0 - - 10 - - - -
 
Date/Time
EST
Temp

°C
Wind Pressure Rain
since 9am
mm
Weather Cloud Vis
km
Sea
Height
m
Swell
Dir
 
Speed
knots
Gust
knots
hPa Trend Height
m
Period
s
Dir
27/11:30pm 8.1 CALM 0 0 1023.8 - 0.0 - - 10 - - - -
27/11:00pm 8.1 CALM 0 0 1023.9 - 0.0 - - 10 - - - -
27/10:30pm 8.9 CALM 0 0 1024.0 - 0.0 - - 10 - - - -
27/10:00pm 8.8 W 2 3 1023.9 - 0.0 - - 10 - - - -
27/09:30pm 9.0 W 3 3 1024.0 - 0.0 - - 10 - - - -
27/09:00pm 10.2 W 3 4 1024.1 - 0.0 - - 10 - - - -
27/08:30pm 10.4 W 3 4 1023.9 - 0.0 - - 10 - - - -
27/08:00pm 10.6 WNW 3 4 1023.8 - 0.0 - - 10 - - - -
27/07:30pm 10.9 WNW 3 4 1023.6 - 0.0 - - 10 - - - -
27/07:00pm 11.6 CALM 0 0 1023.5 - 0.0 - - 10 - - - -
27/06:30pm 12.2 W 3 4 1023.3 - 0.0 - - 10 - - - -
27/06:00pm 12.9 WNW 2 4 1023.0 - 0.0 - - 10 - - - -
27/05:30pm 14.8 SSE 4 7 1022.7 - 0.0 - - 10 - - - -

Other Formats:

Comma delimited format used in spreadsheet applications
http://www.bom.gov.au/fwo/IDN60701/IDN60701.94596.axf

JavaScript Object Notation format (JSON) in row-major order
http://www.bom.gov.au/fwo/IDN60701/IDN60701.94596.json